Startpagina
METAR-TAF:

METAR-TAF

Vliegvelden :

Mendoza, Argentinië

breedte: 32-50S, lengte: 068-47W, hoogte: 705 m

Actueel weer

Dit bericht is 38 minuten geleden gemaakt, om 17:00 UTC
Wind 7 kt uit het noordoosten
Temperatuur 32°C
Vochtigheid 34%
Druk 1010 hPa
Zicht 10 km of meer
geen wolken onder 1500 m en geen cumulonimbus

METAR: SAME 171700Z 05007KT CAVOK 32/14 Q1010

Tijdstip: 14:38 (17:38 UTC)

Verwachting

Dit bericht is 6 uur en het 38 minuten geleden gemaakt, om 11:00 UTC
Verwachting geldig van 17 om 12 UTC tot 18 om 12 UTC
Wind 3 kt uit variabele richting
Zicht 10 km of meer
geen wolken onder 1500 m en geen cumulonimbus
Wijzigt naar
van 17 om 14 UTC tot 17 om 16 UTC
Wind 10 kt uit het noordoosten
Zicht 10 km of meer
geen wolken onder 1500 m en geen cumulonimbus
Wijzigt naar
van 17 om 23 UTC tot 18 om 01 UTC
Wind 3 kt uit variabele richting
Zicht 10 km of meer
Weinig wolken op 4000 ft

TAF: SAME 171100Z 1712/1812 VRB03KT CAVOK TX37/1720Z TN22/1810Z BECMG 1714/1716 05010KT CAVOK BECMG 1723/1801 VRB03KT 9999 FEW040

Waarnemingen en weersverwachtingen van meer dan 4000 vliegvelden (METAR en TAF).

De beschikbare stations zijn de gele en rode punten op de kaart.

Ga met uw muis naar het station om de naam te zien.

Klik dan om waarnemingen en weersverwachtingen te zien.

kaart wijzigen: klik op de groene knoppen met een zwart kruis om in te zoomen, op de groene knop met een streepje om uit te zoomen of op de groene pijlen voor aangrenzende kaarten.


METAR-TAF: